Brunson, SC (29911)

2:19 PM EST on February 06, 2016 (GMT -0500)
Joe Miley Road | | Change Station
CLOSE
Current Station
Personal Weather Station
Location: Brunson, SC
Elevation: 135 ft
Nearby Weather Stations
Active Advisory: Flood Warning

Elev 135 ft 32.94 °N, 81.13 °W | Updated 12 minutes ago

Overcast
Overcast
47.3 °F
Feels Like 47 °F
N
1.1
Wind Variable Wind from NE

Today
High -- | Low -- °F
--% Chance of Precip.
Yesterday
High -- | Low -- °F
Precip. -- in
Pressure 30.29 in
Visibility 10.0 miles
Clouds Mostly Cloudy 3800 ft
Mostly Cloudy 4800 ft
Overcast 5500 ft
Windchill 47 °F
Dew Point 34 °F
Humidity 60%
Rainfall 0.00 in
Snow Depth Not available.
7:16 AM 6:01 PM
Waning Crescent, 4% visible
METAR KJYL 061855Z AUTO 00000KT 10SM RA BKN038 BKN048 OVC055 09/03 A3029 RMK AO2 T00860028
Pressure 30.29 in
Visibility 10.0 miles
Clouds Mostly Cloudy 3800 ft
Mostly Cloudy 4800 ft
Overcast 5500 ft
Windchill 47 °F
Dew Point 34 °F
Humidity 60%
Rainfall 0.00 in
Snow Depth Not available.
7:16 AM 6:01 PM
Waning Crescent, 4% visible
METAR KJYL 061855Z AUTO 00000KT 10SM RA BKN038 BKN048 OVC055 09/03 A3029 RMK AO2 T00860028

10-Day Weather Forecast

Almanac

Astronomy

Feb. 06, 2016 Rise Set
Actual Time
Civil Twilight
Nautical Twilight
Astronomical Twilight
Moon
Length of Visible Light
Length of Day
Tomorrow will be .
, % of the Moon is Illuminated

Today's Extremes

State Highs State Lows

Community

WunderPhotos

Upload Photos

1,891,033 photos uploaded!

WunderBlog® & News

Nearby

Air Quality

  Air Quality AQ Index Pollutant
Not available.

Snow Depth

Station Depth Elevation

Earthquake Activity

City Distance Mag. Time & Date
Minimum magnitude displayed is 2.5.

Coastal Water Temperatures

Place Temperature

Stations

Nearby Weather Stations

Station Location Temp. Windchill Dew Point Humidity Wind Precip. Elev Updated Type
                   

Watches & Warnings

Flood Warning
Issued: 10:23 AM EST Feb. 6, 2016 – National Weather Service

The Flood Warning continues for
the Savannah River near Clyo.
* At 9 am Saturday the stage was 16.5 feet.
* Flood stage is 11.0 feet.
* Moderate flooding is occurring.
* Forecast, the river will continue to fall.
* At 14.5 feet, the bottom floor of several riverfront homes along Tom
goethe Road begins to flood.


Lat... Lon 3273 8145 3276 8137 3264 8136 3249 8117
          3246 8125 3261 8144